sensor_id;sensor_type;location;lat;lon;timestamp;P1;durP1;ratioP1;P2;durP2;ratioP2
68224;SDS011;57497;43.322;21.932;2023-09-19T00:00:35;7.1;;;5.2;;
68224;SDS011;57497;43.322;21.932;2023-09-19T00:05:33;7.7;;;5.5;;
68224;SDS011;57497;43.322;21.932;2023-09-19T00:10:34;7.8;;;6.7;;
68224;SDS011;57497;43.322;21.932;2023-09-19T00:15:36;5.8;;;5.2;;
68224;SDS011;57497;43.322;21.932;2023-09-19T00:20:35;18.7;;;4.7;;
68224;SDS011;57497;43.322;21.932;2023-09-19T00:25:33;21.1;;;5.4;;
68224;SDS011;57497;43.322;21.932;2023-09-19T00:30:33;8.3;;;4.6;;
68224;SDS011;57497;43.322;21.932;2023-09-19T00:35:33;4.6;;;3.6;;
68224;SDS011;57497;43.322;21.932;2023-09-19T00:40:33;9.8;;;5.2;;
68224;SDS011;57497;43.322;21.932;2023-09-19T00:45:33;8;;;5.6;;
68224;SDS011;57497;43.322;21.932;2023-09-19T00:50:33;6;;;5.1;;
68224;SDS011;57497;43.322;21.932;2023-09-19T00:55:33;8.6;;;4.7;;
68224;SDS011;57497;43.322;21.932;2023-09-19T01:00:35;5.2;;;4.7;;
68224;SDS011;57497;43.322;21.932;2023-09-19T01:05:33;8.1;;;5.3;;
68224;SDS011;57497;43.322;21.932;2023-09-19T01:10:33;4.9;;;4.1;;
68224;SDS011;57497;43.322;21.932;2023-09-19T01:15:37;18.6;;;4.6;;
68224;SDS011;57497;43.322;21.932;2023-09-19T01:20:36;7.9;;;5.1;;
68224;SDS011;57497;43.322;21.932;2023-09-19T01:26:00;19.8;;;4.6;;
68224;SDS011;57497;43.322;21.932;2023-09-19T01:30:35;15.1;;;3.6;;
68224;SDS011;57497;43.322;21.932;2023-09-19T01:35:34;6.7;;;2.9;;
68224;SDS011;57497;43.322;21.932;2023-09-19T01:40:33;11.2;;;4.9;;
68224;SDS011;57497;43.322;21.932;2023-09-19T01:45:34;5.8;;;3.7;;
68224;SDS011;57497;43.322;21.932;2023-09-19T01:50:34;5.6;;;4.1;;
68224;SDS011;57497;43.322;21.932;2023-09-19T01:55:46;7.7;;;4.9;;
68224;SDS011;57497;43.322;21.932;2023-09-19T02:00:36;12;;;4.8;;
68224;SDS011;57497;43.322;21.932;2023-09-19T02:05:33;5.2;;;3.5;;
68224;SDS011;57497;43.322;21.932;2023-09-19T02:10:33;25.4;;;5.2;;
68224;SDS011;57497;43.322;21.932;2023-09-19T02:15:33;7.6;;;4.4;;
68224;SDS011;57497;43.322;21.932;2023-09-19T02:20:33;6.5;;;4.5;;
68224;SDS011;57497;43.322;21.932;2023-09-19T02:25:33;15.2;;;4.9;;
68224;SDS011;57497;43.322;21.932;2023-09-19T02:30:33;11;;;5.7;;
68224;SDS011;57497;43.322;21.932;2023-09-19T02:35:33;7;;;3.5;;
68224;SDS011;57497;43.322;21.932;2023-09-19T02:40:33;5.6;;;4.3;;
68224;SDS011;57497;43.322;21.932;2023-09-19T02:45:33;12.3;;;8.2;;
68224;SDS011;57497;43.322;21.932;2023-09-19T02:50:33;6.5;;;4.7;;
68224;SDS011;57497;43.322;21.932;2023-09-19T02:55:33;10.1;;;4.6;;
68224;SDS011;57497;43.322;21.932;2023-09-19T03:00:35;6.1;;;4.9;;
68224;SDS011;57497;43.322;21.932;2023-09-19T03:05:34;5.4;;;4.1;;
68224;SDS011;57497;43.322;21.932;2023-09-19T03:10:33;13.7;;;4.5;;
68224;SDS011;57497;43.322;21.932;2023-09-19T03:15:34;8.9;;;5.5;;
68224;SDS011;57497;43.322;21.932;2023-09-19T03:20:33;5.8;;;5.2;;
68224;SDS011;57497;43.322;21.932;2023-09-19T03:25:34;26.6;;;5.2;;
68224;SDS011;57497;43.322;21.932;2023-09-19T03:30:33;5.1;;;4.4;;
68224;SDS011;57497;43.322;21.932;2023-09-19T03:35:33;5.8;;;4.7;;
68224;SDS011;57497;43.322;21.932;2023-09-19T03:40:33;6.6;;;5.1;;
68224;SDS011;57497;43.322;21.932;2023-09-19T03:45:33;12.6;;;4.2;;
68224;SDS011;57497;43.322;21.932;2023-09-19T03:50:33;5.6;;;4;;
68224;SDS011;57497;43.322;21.932;2023-09-19T03:55:33;6.8;;;5;;
68224;SDS011;57497;43.322;21.932;2023-09-19T04:00:35;8.5;;;5.5;;
68224;SDS011;57497;43.322;21.932;2023-09-19T04:05:33;5.6;;;4;;
68224;SDS011;57497;43.322;21.932;2023-09-19T04:10:33;5.6;;;4.3;;
68224;SDS011;57497;43.322;21.932;2023-09-19T04:15:33;6.4;;;4.7;;
68224;SDS011;57497;43.322;21.932;2023-09-19T04:20:34;6.9;;;4.6;;
68224;SDS011;57497;43.322;21.932;2023-09-19T04:25:33;12.2;;;7.4;;
68224;SDS011;57497;43.322;21.932;2023-09-19T04:30:33;4.8;;;4.3;;
68224;SDS011;57497;43.322;21.932;2023-09-19T04:35:33;6.2;;;3.5;;
68224;SDS011;57497;43.322;21.932;2023-09-19T04:40:33;9.9;;;4.8;;
68224;SDS011;57497;43.322;21.932;2023-09-19T04:45:33;7.1;;;5.1;;
68224;SDS011;57497;43.322;21.932;2023-09-19T04:50:33;5.3;;;4.5;;
68224;SDS011;57497;43.322;21.932;2023-09-19T04:55:33;10.4;;;4.9;;
68224;SDS011;57497;43.322;21.932;2023-09-19T05:00:34;5.6;;;4.2;;
68224;SDS011;57497;43.322;21.932;2023-09-19T05:05:33;6.6;;;4.8;;
68224;SDS011;57497;43.322;21.932;2023-09-19T05:10:33;5.9;;;4.5;;
68224;SDS011;57497;43.322;21.932;2023-09-19T05:15:33;12.6;;;6.2;;
68224;SDS011;57497;43.322;21.932;2023-09-19T05:20:34;6.4;;;4.7;;
68224;SDS011;57497;43.322;21.932;2023-09-19T05:25:33;9.4;;;5.1;;
68224;SDS011;57497;43.322;21.932;2023-09-19T05:30:34;10.5;;;4.9;;
68224;SDS011;57497;43.322;21.932;2023-09-19T05:35:33;7.5;;;4.7;;
68224;SDS011;57497;43.322;21.932;2023-09-19T05:40:33;8.7;;;5.2;;
68224;SDS011;57497;43.322;21.932;2023-09-19T05:45:33;6.9;;;4.9;;
68224;SDS011;57497;43.322;21.932;2023-09-19T05:50:33;9.8;;;6.2;;
68224;SDS011;57497;43.322;21.932;2023-09-19T05:55:33;8.4;;;4.8;;
68224;SDS011;57497;43.322;21.932;2023-09-19T06:00:34;7.1;;;4.4;;
68224;SDS011;57497;43.322;21.932;2023-09-19T06:05:33;10.6;;;6.2;;
68224;SDS011;57497;43.322;21.932;2023-09-19T06:10:33;6;;;4.9;;
68224;SDS011;57497;43.322;21.932;2023-09-19T06:15:33;5.6;;;4.2;;
68224;SDS011;57497;43.322;21.932;2023-09-19T06:20:33;5.5;;;4.2;;
68224;SDS011;57497;43.322;21.932;2023-09-19T06:25:33;14.4;;;4.4;;
68224;SDS011;57497;43.322;21.932;2023-09-19T06:30:33;12.4;;;5.3;;
68224;SDS011;57497;43.322;21.932;2023-09-19T06:35:33;32.2;;;5.5;;
68224;SDS011;57497;43.322;21.932;2023-09-19T06:40:34;6.1;;;4.5;;
68224;SDS011;57497;43.322;21.932;2023-09-19T06:45:33;15.6;;;5.1;;
68224;SDS011;57497;43.322;21.932;2023-09-19T06:50:33;9.2;;;5.3;;
68224;SDS011;57497;43.322;21.932;2023-09-19T06:55:33;6.4;;;4.9;;
68224;SDS011;57497;43.322;21.932;2023-09-19T07:00:35;5.6;;;4.3;;
68224;SDS011;57497;43.322;21.932;2023-09-19T07:05:34;5.1;;;4.4;;
68224;SDS011;57497;43.322;21.932;2023-09-19T07:10:33;5.3;;;4.8;;
68224;SDS011;57497;43.322;21.932;2023-09-19T07:15:33;25;;;5.7;;
68224;SDS011;57497;43.322;21.932;2023-09-19T07:20:33;23.3;;;7.3;;
68224;SDS011;57497;43.322;21.932;2023-09-19T07:25:34;6.8;;;5.2;;
68224;SDS011;57497;43.322;21.932;2023-09-19T07:30:35;8.4;;;4.1;;
68224;SDS011;57497;43.322;21.932;2023-09-19T07:35:33;8;;;4.1;;
68224;SDS011;57497;43.322;21.932;2023-09-19T07:40:33;5.4;;;4.8;;
68224;SDS011;57497;43.322;21.932;2023-09-19T07:45:33;11.6;;;4.8;;
68224;SDS011;57497;43.322;21.932;2023-09-19T07:50:33;7.6;;;5.1;;
68224;SDS011;57497;43.322;21.932;2023-09-19T07:55:33;7.8;;;6.8;;
68224;SDS011;57497;43.322;21.932;2023-09-19T08:00:35;8.8;;;6.3;;
68224;SDS011;57497;43.322;21.932;2023-09-19T08:05:33;7.1;;;4.5;;
68224;SDS011;57497;43.322;21.932;2023-09-19T08:10:33;9;;;5.3;;
68224;SDS011;57497;43.322;21.932;2023-09-19T08:15:33;8.1;;;6.2;;
68224;SDS011;57497;43.322;21.932;2023-09-19T08:20:33;5.9;;;4.3;;
68224;SDS011;57497;43.322;21.932;2023-09-19T08:25:34;5.4;;;4.7;;
68224;SDS011;57497;43.322;21.932;2023-09-19T08:30:33;5.6;;;5;;
68224;SDS011;57497;43.322;21.932;2023-09-19T08:35:33;8.8;;;4.7;;
68224;SDS011;57497;43.322;21.932;2023-09-19T08:40:34;5.5;;;4.5;;
68224;SDS011;57497;43.322;21.932;2023-09-19T08:45:33;19.7;;;4.9;;
68224;SDS011;57497;43.322;21.932;2023-09-19T08:50:35;14;;;5;;
68224;SDS011;57497;43.322;21.932;2023-09-19T08:55:33;6.6;;;4.4;;
68224;SDS011;57497;43.322;21.932;2023-09-19T09:00:35;14;;;4.7;;
68224;SDS011;57497;43.322;21.932;2023-09-19T09:05:35;5.3;;;3.7;;
68224;SDS011;57497;43.322;21.932;2023-09-19T09:10:33;6.8;;;5.6;;
68224;SDS011;57497;43.322;21.932;2023-09-19T09:15:34;8.4;;;4.3;;
68224;SDS011;57497;43.322;21.932;2023-09-19T09:20:33;10.8;;;5.4;;
68224;SDS011;57497;43.322;21.932;2023-09-19T09:25:49;6.7;;;5.8;;
68224;SDS011;57497;43.322;21.932;2023-09-19T09:30:33;6.2;;;5.3;;
68224;SDS011;57497;43.322;21.932;2023-09-19T09:35:33;9.4;;;5.9;;
68224;SDS011;57497;43.322;21.932;2023-09-19T09:40:38;5;;;4.4;;
68224;SDS011;57497;43.322;21.932;2023-09-19T09:45:33;6.4;;;5.2;;
68224;SDS011;57497;43.322;21.932;2023-09-19T09:50:34;7.3;;;6.5;;
68224;SDS011;57497;43.322;21.932;2023-09-19T09:55:56;8.9;;;5;;
68224;SDS011;57497;43.322;21.932;2023-09-19T10:00:35;9.1;;;5.8;;
68224;SDS011;57497;43.322;21.932;2023-09-19T10:05:33;9.5;;;5.2;;
68224;SDS011;57497;43.322;21.932;2023-09-19T10:10:33;15.8;;;5.5;;
68224;SDS011;57497;43.322;21.932;2023-09-19T10:15:34;8.1;;;5.6;;
68224;SDS011;57497;43.322;21.932;2023-09-19T10:20:33;7.9;;;6;;
68224;SDS011;57497;43.322;21.932;2023-09-19T10:25:33;5.7;;;5.1;;
68224;SDS011;57497;43.322;21.932;2023-09-19T10:30:33;8.4;;;5.9;;
68224;SDS011;57497;43.322;21.932;2023-09-19T10:35:33;9.3;;;7.3;;
68224;SDS011;57497;43.322;21.932;2023-09-19T10:40:33;8.5;;;6;;
68224;SDS011;57497;43.322;21.932;2023-09-19T10:45:34;9.2;;;6;;
68224;SDS011;57497;43.322;21.932;2023-09-19T10:50:33;10.2;;;5.5;;
68224;SDS011;57497;43.322;21.932;2023-09-19T10:55:33;5;;;4.1;;
68224;SDS011;57497;43.322;21.932;2023-09-19T11:00:53;6.3;;;5.2;;
68224;SDS011;57497;43.322;21.932;2023-09-19T11:05:34;10;;;5.9;;
68224;SDS011;57497;43.322;21.932;2023-09-19T11:10:49;15.2;;;4.9;;
68224;SDS011;57497;43.322;21.932;2023-09-19T11:16:05;7.6;;;6.2;;
68224;SDS011;57497;43.322;21.932;2023-09-19T11:20:33;6.5;;;5.4;;
68224;SDS011;57497;43.322;21.932;2023-09-19T11:25:41;10.4;;;5.5;;
68224;SDS011;57497;43.322;21.932;2023-09-19T11:30:33;9.4;;;6.5;;
68224;SDS011;57497;43.322;21.932;2023-09-19T11:35:58;9.3;;;7.8;;
68224;SDS011;57497;43.322;21.932;2023-09-19T11:40:33;7.4;;;5.2;;
68224;SDS011;57497;43.322;21.932;2023-09-19T11:46:00;9.1;;;5.9;;
68224;SDS011;57497;43.322;21.932;2023-09-19T11:50:33;20.8;;;7.8;;
68224;SDS011;57497;43.322;21.932;2023-09-19T11:55:33;7.9;;;6.3;;
68224;SDS011;57497;43.322;21.932;2023-09-19T12:00:35;7.5;;;6.4;;
68224;SDS011;57497;43.322;21.932;2023-09-19T12:05:33;7.4;;;5.7;;
68224;SDS011;57497;43.322;21.932;2023-09-19T12:10:33;8.9;;;5.2;;
68224;SDS011;57497;43.322;21.932;2023-09-19T12:15:33;16;;;6.8;;
68224;SDS011;57497;43.322;21.932;2023-09-19T12:20:49;9.8;;;6.1;;
68224;SDS011;57497;43.322;21.932;2023-09-19T12:25:41;9.2;;;6;;
68224;SDS011;57497;43.322;21.932;2023-09-19T12:30:33;10;;;6.8;;
68224;SDS011;57497;43.322;21.932;2023-09-19T12:35:33;7.9;;;5.9;;
68224;SDS011;57497;43.322;21.932;2023-09-19T12:40:33;14.7;;;6.3;;
68224;SDS011;57497;43.322;21.932;2023-09-19T12:45:33;28.6;;;6.1;;
68224;SDS011;57497;43.322;21.932;2023-09-19T12:50:33;9;;;6.3;;
68224;SDS011;57497;43.322;21.932;2023-09-19T12:55:33;22.7;;;6.7;;
68224;SDS011;57497;43.322;21.932;2023-09-19T13:00:35;6.4;;;5.7;;
68224;SDS011;57497;43.322;21.932;2023-09-19T13:05:46;10.3;;;7.6;;
68224;SDS011;57497;43.322;21.932;2023-09-19T13:10:33;10.7;;;7;;
68224;SDS011;57497;43.322;21.932;2023-09-19T13:15:51;16.1;;;9.2;;
68224;SDS011;57497;43.322;21.932;2023-09-19T13:20:33;15.8;;;6.9;;
68224;SDS011;57497;43.322;21.932;2023-09-19T13:25:33;8.2;;;6.7;;
68224;SDS011;57497;43.322;21.932;2023-09-19T13:30:33;13;;;9.5;;
68224;SDS011;57497;43.322;21.932;2023-09-19T13:35:33;6.3;;;5.6;;
68224;SDS011;57497;43.322;21.932;2023-09-19T13:40:33;6.2;;;5.4;;
68224;SDS011;57497;43.322;21.932;2023-09-19T13:45:33;10.3;;;7.6;;
68224;SDS011;57497;43.322;21.932;2023-09-19T13:50:34;7.8;;;6.8;;
68224;SDS011;57497;43.322;21.932;2023-09-19T13:55:33;19.6;;;7.8;;
68224;SDS011;57497;43.322;21.932;2023-09-19T14:00:35;13.7;;;10.2;;
68224;SDS011;57497;43.322;21.932;2023-09-19T14:05:33;9.2;;;7;;
68224;SDS011;57497;43.322;21.932;2023-09-19T14:10:33;13.7;;;12.3;;
68224;SDS011;57497;43.322;21.932;2023-09-19T14:15:36;9.8;;;7.2;;
68224;SDS011;57497;43.322;21.932;2023-09-19T14:20:33;8.7;;;6.7;;
68224;SDS011;57497;43.322;21.932;2023-09-19T14:25:34;11.6;;;8.4;;
68224;SDS011;57497;43.322;21.932;2023-09-19T14:30:33;12;;;8.3;;
68224;SDS011;57497;43.322;21.932;2023-09-19T14:35:36;8.8;;;6.7;;
68224;SDS011;57497;43.322;21.932;2023-09-19T14:40:33;12.3;;;7.4;;
68224;SDS011;57497;43.322;21.932;2023-09-19T14:45:33;9.7;;;6.7;;
68224;SDS011;57497;43.322;21.932;2023-09-19T14:50:33;8.2;;;6.3;;
68224;SDS011;57497;43.322;21.932;2023-09-19T14:55:36;8;;;6.9;;
68224;SDS011;57497;43.322;21.932;2023-09-19T15:00:35;8.5;;;6.9;;
68224;SDS011;57497;43.322;21.932;2023-09-19T15:05:33;7.3;;;5.6;;
68224;SDS011;57497;43.322;21.932;2023-09-19T15:10:33;10.9;;;5.9;;
68224;SDS011;57497;43.322;21.932;2023-09-19T15:15:33;7.4;;;5.5;;
68224;SDS011;57497;43.322;21.932;2023-09-19T15:20:33;16.1;;;7.5;;
68224;SDS011;57497;43.322;21.932;2023-09-19T15:25:33;9.2;;;6.5;;
68224;SDS011;57497;43.322;21.932;2023-09-19T15:30:36;11.7;;;6.9;;
68224;SDS011;57497;43.322;21.932;2023-09-19T15:35:33;10.4;;;9.4;;
68224;SDS011;57497;43.322;21.932;2023-09-19T15:40:33;10.8;;;6.7;;
68224;SDS011;57497;43.322;21.932;2023-09-19T15:45:33;39.1;;;8.2;;
68224;SDS011;57497;43.322;21.932;2023-09-19T15:50:33;19.2;;;10.3;;
68224;SDS011;57497;43.322;21.932;2023-09-19T15:55:33;11.6;;;6.9;;
68224;SDS011;57497;43.322;21.932;2023-09-19T16:00:35;8.8;;;6.8;;
68224;SDS011;57497;43.322;21.932;2023-09-19T16:05:35;10.4;;;7;;
68224;SDS011;57497;43.322;21.932;2023-09-19T16:10:34;9.8;;;6.9;;
68224;SDS011;57497;43.322;21.932;2023-09-19T16:15:34;11.6;;;6.9;;
68224;SDS011;57497;43.322;21.932;2023-09-19T16:20:33;8.2;;;6.2;;
68224;SDS011;57497;43.322;21.932;2023-09-19T16:25:33;12.8;;;8.2;;
68224;SDS011;57497;43.322;21.932;2023-09-19T16:30:33;10.5;;;7.5;;
68224;SDS011;57497;43.322;21.932;2023-09-19T16:35:36;7.7;;;6.9;;
68224;SDS011;57497;43.322;21.932;2023-09-19T16:40:33;14.9;;;9.1;;
68224;SDS011;57497;43.322;21.932;2023-09-19T16:45:33;12.4;;;6.5;;
68224;SDS011;57497;43.322;21.932;2023-09-19T16:50:33;14;;;7;;
68224;SDS011;57497;43.322;21.932;2023-09-19T16:55:33;16.6;;;7.6;;
68224;SDS011;57497;43.322;21.932;2023-09-19T17:00:35;32.5;;;7.1;;
68224;SDS011;57497;43.322;21.932;2023-09-19T17:05:33;9.1;;;7.2;;
68224;SDS011;57497;43.322;21.932;2023-09-19T17:15:33;20.2;;;12.4;;
68224;SDS011;57497;43.322;21.932;2023-09-19T17:20:33;22.5;;;9;;
68224;SDS011;57497;43.322;21.932;2023-09-19T17:25:33;17.7;;;10.7;;
68224;SDS011;57497;43.322;21.932;2023-09-19T17:30:35;13.3;;;9.5;;
68224;SDS011;57497;43.322;21.932;2023-09-19T17:35:33;23.2;;;12.9;;
68224;SDS011;57497;43.322;21.932;2023-09-19T17:40:38;21.4;;;12.3;;
68224;SDS011;57497;43.322;21.932;2023-09-19T17:45:34;18.8;;;12.6;;
68224;SDS011;57497;43.322;21.932;2023-09-19T17:50:33;15.3;;;11;;
68224;SDS011;57497;43.322;21.932;2023-09-19T17:55:36;19.5;;;11.9;;
68224;SDS011;57497;43.322;21.932;2023-09-19T18:00:35;16.8;;;8.8;;
68224;SDS011;57497;43.322;21.932;2023-09-19T18:05:33;16.5;;;10.4;;
68224;SDS011;57497;43.322;21.932;2023-09-19T18:10:36;10.6;;;9.5;;
68224;SDS011;57497;43.322;21.932;2023-09-19T18:15:35;22.4;;;10.7;;
68224;SDS011;57497;43.322;21.932;2023-09-19T18:20:33;15.2;;;9.5;;
68224;SDS011;57497;43.322;21.932;2023-09-19T18:25:33;11.3;;;8.9;;
68224;SDS011;57497;43.322;21.932;2023-09-19T18:30:33;9.1;;;8.2;;
68224;SDS011;57497;43.322;21.932;2023-09-19T18:35:34;16.7;;;8.4;;
68224;SDS011;57497;43.322;21.932;2023-09-19T18:40:34;10.6;;;9.3;;
68224;SDS011;57497;43.322;21.932;2023-09-19T18:45:33;23.8;;;9.1;;
68224;SDS011;57497;43.322;21.932;2023-09-19T18:50:34;12.5;;;5.4;;
68224;SDS011;57497;43.322;21.932;2023-09-19T18:55:34;12.4;;;8.9;;
68224;SDS011;57497;43.322;21.932;2023-09-19T19:00:34;14.5;;;7.1;;
68224;SDS011;57497;43.322;21.932;2023-09-19T19:05:34;11.2;;;8.3;;
68224;SDS011;57497;43.322;21.932;2023-09-19T19:10:38;13.3;;;7.6;;
68224;SDS011;57497;43.322;21.932;2023-09-19T19:15:33;8.9;;;6.6;;
68224;SDS011;57497;43.322;21.932;2023-09-19T19:20:33;8.2;;;6.3;;
68224;SDS011;57497;43.322;21.932;2023-09-19T19:25:33;8.2;;;6.6;;
68224;SDS011;57497;43.322;21.932;2023-09-19T19:30:33;8;;;6.3;;
68224;SDS011;57497;43.322;21.932;2023-09-19T19:35:33;9;;;5.7;;
68224;SDS011;57497;43.322;21.932;2023-09-19T19:40:33;7.7;;;5.3;;
68224;SDS011;57497;43.322;21.932;2023-09-19T19:45:33;4.6;;;4.1;;
68224;SDS011;57497;43.322;21.932;2023-09-19T19:50:37;13.2;;;8.3;;
68224;SDS011;57497;43.322;21.932;2023-09-19T19:55:33;6.1;;;4.2;;
68224;SDS011;57497;43.322;21.932;2023-09-19T20:00:34;14;;;5;;
68224;SDS011;57497;43.322;21.932;2023-09-19T20:05:36;11.3;;;5.4;;
68224;SDS011;57497;43.322;21.932;2023-09-19T20:10:34;10.6;;;7.7;;
68224;SDS011;57497;43.322;21.932;2023-09-19T20:15:33;10;;;7.7;;
68224;SDS011;57497;43.322;21.932;2023-09-19T20:20:33;13.1;;;6.8;;
68224;SDS011;57497;43.322;21.932;2023-09-19T20:25:34;18.6;;;7.3;;
68224;SDS011;57497;43.322;21.932;2023-09-19T20:30:34;11.6;;;7.6;;
68224;SDS011;57497;43.322;21.932;2023-09-19T20:35:35;15.6;;;8;;
68224;SDS011;57497;43.322;21.932;2023-09-19T20:40:34;20.8;;;8.6;;
68224;SDS011;57497;43.322;21.932;2023-09-19T20:45:33;6.7;;;6;;
68224;SDS011;57497;43.322;21.932;2023-09-19T20:50:33;11.6;;;8.8;;
68224;SDS011;57497;43.322;21.932;2023-09-19T20:55:33;10.8;;;9.4;;
68224;SDS011;57497;43.322;21.932;2023-09-19T21:00:39;10.7;;;9.2;;
68224;SDS011;57497;43.322;21.932;2023-09-19T21:05:33;18.4;;;8.1;;
68224;SDS011;57497;43.322;21.932;2023-09-19T21:10:33;16;;;11.4;;
68224;SDS011;57497;43.322;21.932;2023-09-19T21:15:40;15;;;12.2;;
68224;SDS011;57497;43.322;21.932;2023-09-19T21:20:33;15.2;;;11.2;;
68224;SDS011;57497;43.322;21.932;2023-09-19T21:25:33;26.8;;;12.3;;
68224;SDS011;57497;43.322;21.932;2023-09-19T21:30:33;12.6;;;9.1;;
68224;SDS011;57497;43.322;21.932;2023-09-19T21:35:33;19.9;;;8.4;;
68224;SDS011;57497;43.322;21.932;2023-09-19T21:40:33;15;;;10.4;;
68224;SDS011;57497;43.322;21.932;2023-09-19T21:45:33;16.7;;;9.1;;
68224;SDS011;57497;43.322;21.932;2023-09-19T21:50:33;13.3;;;9;;
68224;SDS011;57497;43.322;21.932;2023-09-19T21:55:33;13.9;;;8.8;;
68224;SDS011;57497;43.322;21.932;2023-09-19T22:00:35;11.5;;;8.1;;
68224;SDS011;57497;43.322;21.932;2023-09-19T22:05:33;15.7;;;9.1;;
68224;SDS011;57497;43.322;21.932;2023-09-19T22:10:39;18.6;;;9.7;;
68224;SDS011;57497;43.322;21.932;2023-09-19T22:15:33;17.2;;;9.3;;
68224;SDS011;57497;43.322;21.932;2023-09-19T22:20:33;16.6;;;8.6;;
68224;SDS011;57497;43.322;21.932;2023-09-19T22:25:33;12.9;;;9.6;;
68224;SDS011;57497;43.322;21.932;2023-09-19T22:30:34;7.7;;;6.2;;
68224;SDS011;57497;43.322;21.932;2023-09-19T22:35:33;9;;;6.9;;
68224;SDS011;57497;43.322;21.932;2023-09-19T22:40:33;9.2;;;7.8;;
68224;SDS011;57497;43.322;21.932;2023-09-19T22:45:33;8.5;;;7.2;;
68224;SDS011;57497;43.322;21.932;2023-09-19T22:50:33;11.6;;;8;;
68224;SDS011;57497;43.322;21.932;2023-09-19T22:55:35;11.7;;;9.1;;
68224;SDS011;57497;43.322;21.932;2023-09-19T23:00:36;12.8;;;9.4;;
68224;SDS011;57497;43.322;21.932;2023-09-19T23:05:36;11.2;;;7.2;;
68224;SDS011;57497;43.322;21.932;2023-09-19T23:10:38;18.7;;;12.3;;
68224;SDS011;57497;43.322;21.932;2023-09-19T23:15:36;11.2;;;7.4;;
68224;SDS011;57497;43.322;21.932;2023-09-19T23:20:33;7.8;;;7;;
68224;SDS011;57497;43.322;21.932;2023-09-19T23:25:33;20.2;;;8.6;;
68224;SDS011;57497;43.322;21.932;2023-09-19T23:30:33;9.2;;;6.4;;
68224;SDS011;57497;43.322;21.932;2023-09-19T23:35:33;8.4;;;5.6;;
68224;SDS011;57497;43.322;21.932;2023-09-19T23:40:33;9.2;;;6.9;;
68224;SDS011;57497;43.322;21.932;2023-09-19T23:45:33;16.8;;;7.7;;
68224;SDS011;57497;43.322;21.932;2023-09-19T23:50:33;8.2;;;6.9;;
68224;SDS011;57497;43.322;21.932;2023-09-19T23:55:33;9.8;;;7.6;;
